sensor_id;sensor_type;location;lat;lon;timestamp;temperature;humidity
10644;DHT22;5370;50.132;8.626;2023-08-06T00:01:49;17.30;99.90
10644;DHT22;5370;50.132;8.626;2023-08-06T00:04:15;17.20;99.90
10644;DHT22;5370;50.132;8.626;2023-08-06T00:06:40;17.20;99.90
10644;DHT22;5370;50.132;8.626;2023-08-06T00:09:06;17.10;99.90
10644;DHT22;5370;50.132;8.626;2023-08-06T00:11:31;17.10;99.90
10644;DHT22;5370;50.132;8.626;2023-08-06T00:13:57;17.10;99.90
10644;DHT22;5370;50.132;8.626;2023-08-06T00:16:22;17.00;99.90
10644;DHT22;5370;50.132;8.626;2023-08-06T00:18:48;17.10;99.90
10644;DHT22;5370;50.132;8.626;2023-08-06T00:21:14;17.10;99.90
10644;DHT22;5370;50.132;8.626;2023-08-06T00:23:40;17.10;99.90
10644;DHT22;5370;50.132;8.626;2023-08-06T00:26:06;17.10;99.90
10644;DHT22;5370;50.132;8.626;2023-08-06T00:28:31;17.10;99.90
10644;DHT22;5370;50.132;8.626;2023-08-06T00:30:57;17.20;99.90
10644;DHT22;5370;50.132;8.626;2023-08-06T00:33:23;17.20;99.90
10644;DHT22;5370;50.132;8.626;2023-08-06T00:35:49;17.20;99.90
10644;DHT22;5370;50.132;8.626;2023-08-06T00:38:14;17.20;99.90
10644;DHT22;5370;50.132;8.626;2023-08-06T00:40:40;17.20;99.90
10644;DHT22;5370;50.132;8.626;2023-08-06T00:43:05;17.20;99.90
10644;DHT22;5370;50.132;8.626;2023-08-06T00:45:34;17.20;99.90
10644;DHT22;5370;50.132;8.626;2023-08-06T00:48:01;17.20;99.90
10644;DHT22;5370;50.132;8.626;2023-08-06T00:50:27;17.20;99.90
10644;DHT22;5370;50.132;8.626;2023-08-06T00:52:52;17.20;99.90
10644;DHT22;5370;50.132;8.626;2023-08-06T00:55:18;17.30;99.90
10644;DHT22;5370;50.132;8.626;2023-08-06T00:57:44;17.20;99.90
10644;DHT22;5370;50.132;8.626;2023-08-06T01:00:10;17.20;99.90
10644;DHT22;5370;50.132;8.626;2023-08-06T01:02:36;17.20;99.90
10644;DHT22;5370;50.132;8.626;2023-08-06T01:05:02;17.20;99.90
10644;DHT22;5370;50.132;8.626;2023-08-06T01:07:50;17.20;99.90
10644;DHT22;5370;50.132;8.626;2023-08-06T01:10:28;17.20;99.90
10644;DHT22;5370;50.132;8.626;2023-08-06T01:15:46;17.30;99.90
10644;DHT22;5370;50.132;8.626;2023-08-06T01:18:12;17.20;99.90
10644;DHT22;5370;50.132;8.626;2023-08-06T01:20:38;17.30;99.90
10644;DHT22;5370;50.132;8.626;2023-08-06T01:23:04;17.30;99.90
10644;DHT22;5370;50.132;8.626;2023-08-06T01:25:45;17.20;99.90
10644;DHT22;5370;50.132;8.626;2023-08-06T01:28:26;17.30;99.90
10644;DHT22;5370;50.132;8.626;2023-08-06T01:30:55;17.30;99.90
10644;DHT22;5370;50.132;8.626;2023-08-06T01:33:25;17.40;99.90
10644;DHT22;5370;50.132;8.626;2023-08-06T01:35:54;17.40;99.90
10644;DHT22;5370;50.132;8.626;2023-08-06T01:38:20;17.40;99.90
10644;DHT22;5370;50.132;8.626;2023-08-06T01:40:45;17.40;99.90
10644;DHT22;5370;50.132;8.626;2023-08-06T01:43:11;17.40;99.90
10644;DHT22;5370;50.132;8.626;2023-08-06T01:45:36;17.40;99.90
10644;DHT22;5370;50.132;8.626;2023-08-06T01:48:02;17.40;99.90
10644;DHT22;5370;50.132;8.626;2023-08-06T01:50:28;17.50;99.90
10644;DHT22;5370;50.132;8.626;2023-08-06T01:52:53;17.40;99.90
10644;DHT22;5370;50.132;8.626;2023-08-06T01:55:19;17.40;99.90
10644;DHT22;5370;50.132;8.626;2023-08-06T01:57:44;17.50;99.90
10644;DHT22;5370;50.132;8.626;2023-08-06T02:00:10;17.50;99.90
10644;DHT22;5370;50.132;8.626;2023-08-06T02:02:36;17.50;99.90
10644;DHT22;5370;50.132;8.626;2023-08-06T02:05:02;17.50;99.90
10644;DHT22;5370;50.132;8.626;2023-08-06T02:07:27;17.50;99.90
10644;DHT22;5370;50.132;8.626;2023-08-06T02:09:53;17.50;99.90
10644;DHT22;5370;50.132;8.626;2023-08-06T02:12:18;17.50;99.90
10644;DHT22;5370;50.132;8.626;2023-08-06T02:14:44;17.50;99.90
10644;DHT22;5370;50.132;8.626;2023-08-06T02:17:09;17.50;99.90
10644;DHT22;5370;50.132;8.626;2023-08-06T02:19:35;17.50;99.90
10644;DHT22;5370;50.132;8.626;2023-08-06T02:22:00;17.50;99.90
10644;DHT22;5370;50.132;8.626;2023-08-06T02:24:27;17.50;99.90
10644;DHT22;5370;50.132;8.626;2023-08-06T02:26:53;17.50;99.90
10644;DHT22;5370;50.132;8.626;2023-08-06T02:29:21;17.50;99.90
10644;DHT22;5370;50.132;8.626;2023-08-06T02:31:46;17.50;99.90
10644;DHT22;5370;50.132;8.626;2023-08-06T02:34:12;17.50;99.90
10644;DHT22;5370;50.132;8.626;2023-08-06T02:36:43;17.50;99.90
10644;DHT22;5370;50.132;8.626;2023-08-06T02:39:09;17.50;99.90
10644;DHT22;5370;50.132;8.626;2023-08-06T02:41:34;17.40;99.90
10644;DHT22;5370;50.132;8.626;2023-08-06T02:44:00;17.40;99.90
10644;DHT22;5370;50.132;8.626;2023-08-06T02:46:25;17.40;99.90
10644;DHT22;5370;50.132;8.626;2023-08-06T02:48:51;17.40;99.90
10644;DHT22;5370;50.132;8.626;2023-08-06T02:51:16;17.40;99.90
10644;DHT22;5370;50.132;8.626;2023-08-06T02:53:42;17.30;99.90
10644;DHT22;5370;50.132;8.626;2023-08-06T02:56:07;17.30;99.90
10644;DHT22;5370;50.132;8.626;2023-08-06T02:58:33;17.30;99.90
10644;DHT22;5370;50.132;8.626;2023-08-06T03:01:03;17.30;99.90
10644;DHT22;5370;50.132;8.626;2023-08-06T03:03:31;17.30;99.90
10644;DHT22;5370;50.132;8.626;2023-08-06T03:05:56;17.30;99.90
10644;DHT22;5370;50.132;8.626;2023-08-06T03:08:22;17.20;99.90
10644;DHT22;5370;50.132;8.626;2023-08-06T03:10:51;17.20;99.90
10644;DHT22;5370;50.132;8.626;2023-08-06T03:13:17;17.20;99.90
10644;DHT22;5370;50.132;8.626;2023-08-06T03:15:44;17.20;99.90
10644;DHT22;5370;50.132;8.626;2023-08-06T03:18:16;17.20;99.90
10644;DHT22;5370;50.132;8.626;2023-08-06T03:20:42;17.20;99.90
10644;DHT22;5370;50.132;8.626;2023-08-06T03:23:07;17.20;99.90
10644;DHT22;5370;50.132;8.626;2023-08-06T03:25:35;17.20;99.90
10644;DHT22;5370;50.132;8.626;2023-08-06T03:28:02;17.20;99.90
10644;DHT22;5370;50.132;8.626;2023-08-06T03:30:28;17.20;99.90
10644;DHT22;5370;50.132;8.626;2023-08-06T03:32:53;17.20;99.90
10644;DHT22;5370;50.132;8.626;2023-08-06T03:35:19;17.20;99.90
10644;DHT22;5370;50.132;8.626;2023-08-06T03:37:44;17.20;99.90
10644;DHT22;5370;50.132;8.626;2023-08-06T03:40:10;17.20;99.90
10644;DHT22;5370;50.132;8.626;2023-08-06T03:42:36;17.20;99.90
10644;DHT22;5370;50.132;8.626;2023-08-06T03:45:01;17.20;99.90
10644;DHT22;5370;50.132;8.626;2023-08-06T03:47:27;17.20;99.90
10644;DHT22;5370;50.132;8.626;2023-08-06T03:49:52;17.20;99.90
10644;DHT22;5370;50.132;8.626;2023-08-06T03:52:18;17.20;99.90
10644;DHT22;5370;50.132;8.626;2023-08-06T03:54:43;17.20;99.90
10644;DHT22;5370;50.132;8.626;2023-08-06T03:57:09;17.20;99.80
10644;DHT22;5370;50.132;8.626;2023-08-06T03:59:35;17.20;99.70
10644;DHT22;5370;50.132;8.626;2023-08-06T04:02:01;17.20;99.60
10644;DHT22;5370;50.132;8.626;2023-08-06T04:04:27;17.20;99.50
10644;DHT22;5370;50.132;8.626;2023-08-06T04:06:52;17.20;99.40
10644;DHT22;5370;50.132;8.626;2023-08-06T04:09:18;17.20;99.40
10644;DHT22;5370;50.132;8.626;2023-08-06T04:11:43;17.20;99.40
10644;DHT22;5370;50.132;8.626;2023-08-06T04:14:09;17.20;99.40
10644;DHT22;5370;50.132;8.626;2023-08-06T04:16:34;17.20;99.40
10644;DHT22;5370;50.132;8.626;2023-08-06T04:19:00;17.20;99.40
10644;DHT22;5370;50.132;8.626;2023-08-06T04:21:25;17.20;99.40
10644;DHT22;5370;50.132;8.626;2023-08-06T04:23:51;17.30;99.30
10644;DHT22;5370;50.132;8.626;2023-08-06T04:26:16;17.30;99.30
10644;DHT22;5370;50.132;8.626;2023-08-06T04:28:42;17.30;98.80
10644;DHT22;5370;50.132;8.626;2023-08-06T04:31:07;17.30;98.70
10644;DHT22;5370;50.132;8.626;2023-08-06T04:33:33;17.30;98.80
10644;DHT22;5370;50.132;8.626;2023-08-06T04:35:59;17.40;98.80
10644;DHT22;5370;50.132;8.626;2023-08-06T04:38:25;17.40;98.70
10644;DHT22;5370;50.132;8.626;2023-08-06T04:40:51;17.50;98.50
10644;DHT22;5370;50.132;8.626;2023-08-06T04:43:16;17.60;98.30
10644;DHT22;5370;50.132;8.626;2023-08-06T04:45:53;17.70;98.20
10644;DHT22;5370;50.132;8.626;2023-08-06T04:48:19;17.80;98.00
10644;DHT22;5370;50.132;8.626;2023-08-06T04:50:49;17.90;97.90
10644;DHT22;5370;50.132;8.626;2023-08-06T04:53:15;18.00;97.70
10644;DHT22;5370;50.132;8.626;2023-08-06T04:55:41;18.10;97.30
10644;DHT22;5370;50.132;8.626;2023-08-06T04:58:06;18.10;96.90
10644;DHT22;5370;50.132;8.626;2023-08-06T05:00:33;18.10;96.50
10644;DHT22;5370;50.132;8.626;2023-08-06T05:03:02;18.20;96.30
10644;DHT22;5370;50.132;8.626;2023-08-06T05:05:28;18.20;95.90
10644;DHT22;5370;50.132;8.626;2023-08-06T05:07:55;18.10;95.70
10644;DHT22;5370;50.132;8.626;2023-08-06T05:10:21;18.00;95.70
10644;DHT22;5370;50.132;8.626;2023-08-06T05:12:47;17.90;95.70
10644;DHT22;5370;50.132;8.626;2023-08-06T05:15:12;17.90;95.80
10644;DHT22;5370;50.132;8.626;2023-08-06T05:17:38;17.80;96.00
10644;DHT22;5370;50.132;8.626;2023-08-06T05:20:04;17.70;96.20
10644;DHT22;5370;50.132;8.626;2023-08-06T05:22:30;17.60;96.50
10644;DHT22;5370;50.132;8.626;2023-08-06T05:24:55;17.60;96.80
10644;DHT22;5370;50.132;8.626;2023-08-06T05:27:21;17.50;96.90
10644;DHT22;5370;50.132;8.626;2023-08-06T05:29:48;17.50;97.10
10644;DHT22;5370;50.132;8.626;2023-08-06T05:32:13;17.50;97.20
10644;DHT22;5370;50.132;8.626;2023-08-06T05:34:39;17.40;97.30
10644;DHT22;5370;50.132;8.626;2023-08-06T05:37:05;17.40;97.60
10644;DHT22;5370;50.132;8.626;2023-08-06T05:39:30;17.50;97.90
10644;DHT22;5370;50.132;8.626;2023-08-06T05:41:56;17.50;98.00
10644;DHT22;5370;50.132;8.626;2023-08-06T05:44:23;17.50;98.10
10644;DHT22;5370;50.132;8.626;2023-08-06T05:46:49;17.50;98.20
10644;DHT22;5370;50.132;8.626;2023-08-06T05:49:14;17.50;98.20
10644;DHT22;5370;50.132;8.626;2023-08-06T05:51:40;17.50;98.30
10644;DHT22;5370;50.132;8.626;2023-08-06T05:54:05;17.50;98.30
10644;DHT22;5370;50.132;8.626;2023-08-06T05:56:31;17.50;98.30
10644;DHT22;5370;50.132;8.626;2023-08-06T05:58:56;17.50;98.30
10644;DHT22;5370;50.132;8.626;2023-08-06T06:01:22;17.50;98.20
10644;DHT22;5370;50.132;8.626;2023-08-06T06:03:48;17.50;98.20
10644;DHT22;5370;50.132;8.626;2023-08-06T06:06:14;17.50;98.40
10644;DHT22;5370;50.132;8.626;2023-08-06T06:08:39;17.50;98.50
10644;DHT22;5370;50.132;8.626;2023-08-06T06:11:05;17.50;98.70
10644;DHT22;5370;50.132;8.626;2023-08-06T06:13:30;17.60;98.80
10644;DHT22;5370;50.132;8.626;2023-08-06T06:15:56;17.60;98.90
10644;DHT22;5370;50.132;8.626;2023-08-06T06:18:22;17.70;98.80
10644;DHT22;5370;50.132;8.626;2023-08-06T06:20:47;17.70;98.70
10644;DHT22;5370;50.132;8.626;2023-08-06T06:23:13;17.80;98.60
10644;DHT22;5370;50.132;8.626;2023-08-06T06:25:57;17.80;98.50
10644;DHT22;5370;50.132;8.626;2023-08-06T06:28:23;17.90;98.40
10644;DHT22;5370;50.132;8.626;2023-08-06T06:30:48;17.90;98.40
10644;DHT22;5370;50.132;8.626;2023-08-06T06:33:14;18.00;98.30
10644;DHT22;5370;50.132;8.626;2023-08-06T06:35:40;18.10;98.10
10644;DHT22;5370;50.132;8.626;2023-08-06T06:38:05;18.10;97.80
10644;DHT22;5370;50.132;8.626;2023-08-06T06:40:31;18.10;97.50
10644;DHT22;5370;50.132;8.626;2023-08-06T06:42:57;18.10;97.10
10644;DHT22;5370;50.132;8.626;2023-08-06T06:45:22;18.10;96.80
10644;DHT22;5370;50.132;8.626;2023-08-06T06:47:48;18.10;96.80
10644;DHT22;5370;50.132;8.626;2023-08-06T06:50:13;18.00;96.70
10644;DHT22;5370;50.132;8.626;2023-08-06T06:52:39;18.00;96.70
10644;DHT22;5370;50.132;8.626;2023-08-06T06:55:05;18.00;96.70
10644;DHT22;5370;50.132;8.626;2023-08-06T06:57:30;17.90;96.70
10644;DHT22;5370;50.132;8.626;2023-08-06T06:59:56;17.90;96.70
10644;DHT22;5370;50.132;8.626;2023-08-06T07:02:21;17.90;96.70
10644;DHT22;5370;50.132;8.626;2023-08-06T07:04:47;17.80;96.70
10644;DHT22;5370;50.132;8.626;2023-08-06T07:07:12;17.70;96.60
10644;DHT22;5370;50.132;8.626;2023-08-06T07:09:38;17.70;96.70
10644;DHT22;5370;50.132;8.626;2023-08-06T07:12:04;17.60;96.80
10644;DHT22;5370;50.132;8.626;2023-08-06T07:14:29;17.60;97.00
10644;DHT22;5370;50.132;8.626;2023-08-06T07:16:55;17.50;97.20
10644;DHT22;5370;50.132;8.626;2023-08-06T07:19:20;17.50;97.30
10644;DHT22;5370;50.132;8.626;2023-08-06T07:21:46;17.50;97.40
10644;DHT22;5370;50.132;8.626;2023-08-06T07:24:12;17.50;97.40
10644;DHT22;5370;50.132;8.626;2023-08-06T07:26:38;17.50;97.60
10644;DHT22;5370;50.132;8.626;2023-08-06T07:29:03;17.40;97.70
10644;DHT22;5370;50.132;8.626;2023-08-06T07:31:29;17.40;97.80
10644;DHT22;5370;50.132;8.626;2023-08-06T07:33:54;17.40;97.80
10644;DHT22;5370;50.132;8.626;2023-08-06T07:36:20;17.40;97.90
10644;DHT22;5370;50.132;8.626;2023-08-06T07:38:46;17.40;98.10
10644;DHT22;5370;50.132;8.626;2023-08-06T07:41:11;17.40;98.20
10644;DHT22;5370;50.132;8.626;2023-08-06T07:43:37;17.40;98.40
10644;DHT22;5370;50.132;8.626;2023-08-06T07:46:03;17.50;98.60
10644;DHT22;5370;50.132;8.626;2023-08-06T07:48:29;17.60;98.70
10644;DHT22;5370;50.132;8.626;2023-08-06T07:50:55;17.60;98.60
10644;DHT22;5370;50.132;8.626;2023-08-06T07:53:22;17.60;98.60
10644;DHT22;5370;50.132;8.626;2023-08-06T07:55:51;17.70;98.60
10644;DHT22;5370;50.132;8.626;2023-08-06T07:58:17;17.70;98.70
10644;DHT22;5370;50.132;8.626;2023-08-06T08:00:43;17.80;98.60
10644;DHT22;5370;50.132;8.626;2023-08-06T08:03:11;17.90;98.60
10644;DHT22;5370;50.132;8.626;2023-08-06T08:05:37;18.00;98.60
10644;DHT22;5370;50.132;8.626;2023-08-06T08:08:03;18.10;98.40
10644;DHT22;5370;50.132;8.626;2023-08-06T08:10:28;18.20;98.20
10644;DHT22;5370;50.132;8.626;2023-08-06T08:12:54;18.30;98.10
10644;DHT22;5370;50.132;8.626;2023-08-06T08:15:20;18.40;97.90
10644;DHT22;5370;50.132;8.626;2023-08-06T08:17:45;18.50;97.80
10644;DHT22;5370;50.132;8.626;2023-08-06T08:20:13;18.60;97.30
10644;DHT22;5370;50.132;8.626;2023-08-06T08:22:38;18.70;96.90
10644;DHT22;5370;50.132;8.626;2023-08-06T08:25:04;18.80;96.70
10644;DHT22;5370;50.132;8.626;2023-08-06T08:27:30;18.90;96.40
10644;DHT22;5370;50.132;8.626;2023-08-06T08:29:56;18.90;96.20
10644;DHT22;5370;50.132;8.626;2023-08-06T08:32:21;19.10;96.30
10644;DHT22;5370;50.132;8.626;2023-08-06T08:34:47;19.20;96.10
10644;DHT22;5370;50.132;8.626;2023-08-06T08:37:13;19.40;95.80
10644;DHT22;5370;50.132;8.626;2023-08-06T08:39:39;19.60;95.60
10644;DHT22;5370;50.132;8.626;2023-08-06T08:42:05;19.90;95.10
10644;DHT22;5370;50.132;8.626;2023-08-06T08:44:32;20.00;94.30
10644;DHT22;5370;50.132;8.626;2023-08-06T08:46:59;20.10;93.40
10644;DHT22;5370;50.132;8.626;2023-08-06T08:49:26;20.10;92.90
10644;DHT22;5370;50.132;8.626;2023-08-06T08:51:53;20.10;92.60
10644;DHT22;5370;50.132;8.626;2023-08-06T08:54:23;20.00;92.30
10644;DHT22;5370;50.132;8.626;2023-08-06T08:56:49;19.90;92.30
10644;DHT22;5370;50.132;8.626;2023-08-06T08:59:14;19.90;92.60
10644;DHT22;5370;50.132;8.626;2023-08-06T09:01:42;19.90;92.60
10644;DHT22;5370;50.132;8.626;2023-08-06T09:04:11;20.00;92.50
10644;DHT22;5370;50.132;8.626;2023-08-06T09:06:38;20.20;92.50
10644;DHT22;5370;50.132;8.626;2023-08-06T09:09:29;20.40;92.30
10644;DHT22;5370;50.132;8.626;2023-08-06T09:12:02;20.60;91.90
10644;DHT22;5370;50.132;8.626;2023-08-06T09:14:29;20.60;91.30
10644;DHT22;5370;50.132;8.626;2023-08-06T09:16:55;20.50;91.10
10644;DHT22;5370;50.132;8.626;2023-08-06T09:19:21;20.50;91.20
10644;DHT22;5370;50.132;8.626;2023-08-06T09:21:47;20.70;91.60
10644;DHT22;5370;50.132;8.626;2023-08-06T09:24:16;21.10;91.50
10644;DHT22;5370;50.132;8.626;2023-08-06T09:26:44;21.50;90.60
10644;DHT22;5370;50.132;8.626;2023-08-06T09:29:10;21.70;89.20
10644;DHT22;5370;50.132;8.626;2023-08-06T09:34:15;21.90;85.20
10644;DHT22;5370;50.132;8.626;2023-08-06T09:36:52;21.80;84.40
10644;DHT22;5370;50.132;8.626;2023-08-06T09:39:19;21.80;83.90
10644;DHT22;5370;50.132;8.626;2023-08-06T09:41:45;21.70;82.70
10644;DHT22;5370;50.132;8.626;2023-08-06T09:44:24;21.60;81.70
10644;DHT22;5370;50.132;8.626;2023-08-06T09:46:51;21.60;81.40
10644;DHT22;5370;50.132;8.626;2023-08-06T09:49:19;21.50;81.30
10644;DHT22;5370;50.132;8.626;2023-08-06T09:51:46;21.40;81.50
10644;DHT22;5370;50.132;8.626;2023-08-06T09:54:15;21.30;81.50
10644;DHT22;5370;50.132;8.626;2023-08-06T09:56:42;21.40;81.50
10644;DHT22;5370;50.132;8.626;2023-08-06T09:59:08;21.50;81.30
10644;DHT22;5370;50.132;8.626;2023-08-06T10:01:35;21.60;80.70
10644;DHT22;5370;50.132;8.626;2023-08-06T10:04:02;21.80;79.30
10644;DHT22;5370;50.132;8.626;2023-08-06T10:06:29;22.00;78.60
10644;DHT22;5370;50.132;8.626;2023-08-06T10:08:55;22.30;77.80
10644;DHT22;5370;50.132;8.626;2023-08-06T10:11:24;22.40;76.80
10644;DHT22;5370;50.132;8.626;2023-08-06T10:13:57;22.40;76.30
10644;DHT22;5370;50.132;8.626;2023-08-06T10:16:23;22.50;76.00
10644;DHT22;5370;50.132;8.626;2023-08-06T10:18:50;22.60;76.00
10644;DHT22;5370;50.132;8.626;2023-08-06T10:21:17;22.90;75.70
10644;DHT22;5370;50.132;8.626;2023-08-06T10:23:43;23.10;74.60
10644;DHT22;5370;50.132;8.626;2023-08-06T10:26:08;23.30;73.10
10644;DHT22;5370;50.132;8.626;2023-08-06T10:28:38;23.50;72.40
10644;DHT22;5370;50.132;8.626;2023-08-06T10:31:04;23.80;71.80
10644;DHT22;5370;50.132;8.626;2023-08-06T10:33:47;24.00;71.00
10644;DHT22;5370;50.132;8.626;2023-08-06T10:36:13;24.10;68.50
10644;DHT22;5370;50.132;8.626;2023-08-06T10:38:47;24.00;67.90
10644;DHT22;5370;50.132;8.626;2023-08-06T10:41:22;23.80;67.50
10644;DHT22;5370;50.132;8.626;2023-08-06T10:43:49;23.70;68.80
10644;DHT22;5370;50.132;8.626;2023-08-06T10:46:31;23.70;68.90
10644;DHT22;5370;50.132;8.626;2023-08-06T10:48:56;23.70;69.10
10644;DHT22;5370;50.132;8.626;2023-08-06T10:51:22;23.70;69.40
10644;DHT22;5370;50.132;8.626;2023-08-06T10:53:49;23.70;69.40
10644;DHT22;5370;50.132;8.626;2023-08-06T10:56:15;23.80;69.40
10644;DHT22;5370;50.132;8.626;2023-08-06T10:58:42;23.90;68.90
10644;DHT22;5370;50.132;8.626;2023-08-06T11:01:09;24.10;67.00
10644;DHT22;5370;50.132;8.626;2023-08-06T11:03:35;24.10;66.00
10644;DHT22;5370;50.132;8.626;2023-08-06T11:06:01;24.10;65.50
10644;DHT22;5370;50.132;8.626;2023-08-06T11:08:29;23.90;65.00
10644;DHT22;5370;50.132;8.626;2023-08-06T11:10:55;23.60;64.80
10644;DHT22;5370;50.132;8.626;2023-08-06T11:13:21;23.30;65.20
10644;DHT22;5370;50.132;8.626;2023-08-06T11:15:47;23.20;66.30
10644;DHT22;5370;50.132;8.626;2023-08-06T11:18:12;23.10;67.20
10644;DHT22;5370;50.132;8.626;2023-08-06T11:20:39;23.20;68.10
10644;DHT22;5370;50.132;8.626;2023-08-06T11:23:05;23.20;68.60
10644;DHT22;5370;50.132;8.626;2023-08-06T11:25:31;23.30;69.20
10644;DHT22;5370;50.132;8.626;2023-08-06T11:27:56;23.30;68.50
10644;DHT22;5370;50.132;8.626;2023-08-06T11:30:22;23.30;68.20
10644;DHT22;5370;50.132;8.626;2023-08-06T11:32:48;23.20;68.00
10644;DHT22;5370;50.132;8.626;2023-08-06T11:35:15;23.10;67.60
10644;DHT22;5370;50.132;8.626;2023-08-06T11:37:44;23.00;67.10
10644;DHT22;5370;50.132;8.626;2023-08-06T11:40:11;22.90;67.50
10644;DHT22;5370;50.132;8.626;2023-08-06T11:42:37;22.70;68.90
10644;DHT22;5370;50.132;8.626;2023-08-06T11:45:04;22.70;68.90
10644;DHT22;5370;50.132;8.626;2023-08-06T11:47:30;22.70;68.80
10644;DHT22;5370;50.132;8.626;2023-08-06T11:49:56;22.70;68.60
10644;DHT22;5370;50.132;8.626;2023-08-06T11:52:25;22.60;68.30
10644;DHT22;5370;50.132;8.626;2023-08-06T11:55:08;22.20;67.50
10644;DHT22;5370;50.132;8.626;2023-08-06T11:57:36;21.50;67.60
10644;DHT22;5370;50.132;8.626;2023-08-06T12:00:13;20.90;68.40
10644;DHT22;5370;50.132;8.626;2023-08-06T12:02:43;20.50;70.10
10644;DHT22;5370;50.132;8.626;2023-08-06T12:05:19;20.20;71.10
10644;DHT22;5370;50.132;8.626;2023-08-06T12:07:51;19.90;72.10
10644;DHT22;5370;50.132;8.626;2023-08-06T12:10:17;19.70;72.60
10644;DHT22;5370;50.132;8.626;2023-08-06T12:12:45;19.40;73.30
10644;DHT22;5370;50.132;8.626;2023-08-06T12:15:11;19.20;74.20
10644;DHT22;5370;50.132;8.626;2023-08-06T12:17:37;19.10;75.40
10644;DHT22;5370;50.132;8.626;2023-08-06T12:20:07;19.00;76.30
10644;DHT22;5370;50.132;8.626;2023-08-06T12:22:33;18.90;76.90
10644;DHT22;5370;50.132;8.626;2023-08-06T12:25:03;18.90;77.40
10644;DHT22;5370;50.132;8.626;2023-08-06T12:27:32;18.80;78.20
10644;DHT22;5370;50.132;8.626;2023-08-06T12:29:57;18.80;78.40
10644;DHT22;5370;50.132;8.626;2023-08-06T12:32:23;18.90;78.70
10644;DHT22;5370;50.132;8.626;2023-08-06T12:34:48;18.90;78.70
10644;DHT22;5370;50.132;8.626;2023-08-06T12:37:14;19.10;78.80
10644;DHT22;5370;50.132;8.626;2023-08-06T12:39:39;19.20;78.60
10644;DHT22;5370;50.132;8.626;2023-08-06T12:42:05;19.30;78.30
10644;DHT22;5370;50.132;8.626;2023-08-06T12:44:32;19.40;77.80
10644;DHT22;5370;50.132;8.626;2023-08-06T12:46:57;19.50;77.20
10644;DHT22;5370;50.132;8.626;2023-08-06T12:49:24;19.40;76.60
10644;DHT22;5370;50.132;8.626;2023-08-06T12:51:50;19.40;76.90
10644;DHT22;5370;50.132;8.626;2023-08-06T12:54:20;19.40;77.20
10644;DHT22;5370;50.132;8.626;2023-08-06T12:56:46;19.30;77.50
10644;DHT22;5370;50.132;8.626;2023-08-06T12:59:14;19.30;78.20
10644;DHT22;5370;50.132;8.626;2023-08-06T13:01:40;19.30;78.70
10644;DHT22;5370;50.132;8.626;2023-08-06T13:04:06;19.30;78.70
10644;DHT22;5370;50.132;8.626;2023-08-06T13:06:32;19.30;78.80
10644;DHT22;5370;50.132;8.626;2023-08-06T13:09:06;19.30;78.70
10644;DHT22;5370;50.132;8.626;2023-08-06T13:11:32;19.30;78.10
10644;DHT22;5370;50.132;8.626;2023-08-06T13:14:24;19.30;77.50
10644;DHT22;5370;50.132;8.626;2023-08-06T13:16:50;19.10;76.00
10644;DHT22;5370;50.132;8.626;2023-08-06T13:19:15;18.90;75.90
10644;DHT22;5370;50.132;8.626;2023-08-06T13:24:07;18.80;77.20
10644;DHT22;5370;50.132;8.626;2023-08-06T13:26:33;18.80;77.40
10644;DHT22;5370;50.132;8.626;2023-08-06T13:29:00;18.80;77.70
10644;DHT22;5370;50.132;8.626;2023-08-06T13:31:26;18.80;77.20
10644;DHT22;5370;50.132;8.626;2023-08-06T13:33:53;18.80;77.20
10644;DHT22;5370;50.132;8.626;2023-08-06T13:36:21;18.70;77.30
10644;DHT22;5370;50.132;8.626;2023-08-06T13:38:46;18.60;76.90
10644;DHT22;5370;50.132;8.626;2023-08-06T13:41:12;18.50;76.60
10644;DHT22;5370;50.132;8.626;2023-08-06T13:43:38;18.50;77.00
10644;DHT22;5370;50.132;8.626;2023-08-06T13:46:04;18.40;76.60
10644;DHT22;5370;50.132;8.626;2023-08-06T13:48:29;18.30;76.40
10644;DHT22;5370;50.132;8.626;2023-08-06T13:50:55;18.20;76.20
10644;DHT22;5370;50.132;8.626;2023-08-06T13:53:20;18.30;77.40
10644;DHT22;5370;50.132;8.626;2023-08-06T13:55:46;18.30;77.10
10644;DHT22;5370;50.132;8.626;2023-08-06T13:58:11;18.20;76.30
10644;DHT22;5370;50.132;8.626;2023-08-06T14:00:37;18.20;76.40
10644;DHT22;5370;50.132;8.626;2023-08-06T14:03:02;18.30;76.30
10644;DHT22;5370;50.132;8.626;2023-08-06T14:05:28;18.20;76.20
10644;DHT22;5370;50.132;8.626;2023-08-06T14:07:53;18.20;76.30
10644;DHT22;5370;50.132;8.626;2023-08-06T14:10:19;18.20;76.10
10644;DHT22;5370;50.132;8.626;2023-08-06T14:12:45;18.20;76.10
10644;DHT22;5370;50.132;8.626;2023-08-06T14:15:11;18.20;76.20
10644;DHT22;5370;50.132;8.626;2023-08-06T14:17:39;18.10;76.30
10644;DHT22;5370;50.132;8.626;2023-08-06T14:20:06;18.10;76.10
10644;DHT22;5370;50.132;8.626;2023-08-06T14:22:33;18.10;76.30
10644;DHT22;5370;50.132;8.626;2023-08-06T14:24:59;18.00;76.20
10644;DHT22;5370;50.132;8.626;2023-08-06T14:27:24;18.00;76.20
10644;DHT22;5370;50.132;8.626;2023-08-06T14:29:50;18.00;76.40
10644;DHT22;5370;50.132;8.626;2023-08-06T14:32:16;18.10;76.70
10644;DHT22;5370;50.132;8.626;2023-08-06T14:34:43;18.20;77.10
10644;DHT22;5370;50.132;8.626;2023-08-06T14:37:09;18.20;77.20
10644;DHT22;5370;50.132;8.626;2023-08-06T14:39:35;18.30;77.40
10644;DHT22;5370;50.132;8.626;2023-08-06T14:42:01;18.30;77.60
10644;DHT22;5370;50.132;8.626;2023-08-06T14:44:27;18.30;77.80
10644;DHT22;5370;50.132;8.626;2023-08-06T14:46:53;18.40;78.10
10644;DHT22;5370;50.132;8.626;2023-08-06T14:49:18;18.40;78.30
10644;DHT22;5370;50.132;8.626;2023-08-06T14:51:44;18.50;78.20
10644;DHT22;5370;50.132;8.626;2023-08-06T14:54:09;18.50;78.10
10644;DHT22;5370;50.132;8.626;2023-08-06T14:56:35;18.60;78.10
10644;DHT22;5370;50.132;8.626;2023-08-06T14:59:00;18.60;78.00
10644;DHT22;5370;50.132;8.626;2023-08-06T15:01:26;18.70;77.90
10644;DHT22;5370;50.132;8.626;2023-08-06T15:03:51;18.80;77.60
10644;DHT22;5370;50.132;8.626;2023-08-06T15:06:17;18.80;77.30
10644;DHT22;5370;50.132;8.626;2023-08-06T15:08:42;18.90;77.10
10644;DHT22;5370;50.132;8.626;2023-08-06T15:11:10;18.90;76.60
10644;DHT22;5370;50.132;8.626;2023-08-06T15:13:36;18.90;76.40
10644;DHT22;5370;50.132;8.626;2023-08-06T15:16:01;18.90;76.30
10644;DHT22;5370;50.132;8.626;2023-08-06T15:18:27;18.80;75.90
10644;DHT22;5370;50.132;8.626;2023-08-06T15:20:52;18.80;75.70
10644;DHT22;5370;50.132;8.626;2023-08-06T15:23:18;18.70;75.00
10644;DHT22;5370;50.132;8.626;2023-08-06T15:25:44;18.70;74.20
10644;DHT22;5370;50.132;8.626;2023-08-06T15:28:10;18.60;73.80
10644;DHT22;5370;50.132;8.626;2023-08-06T15:30:36;18.60;73.50
10644;DHT22;5370;50.132;8.626;2023-08-06T15:33:01;18.60;73.10
10644;DHT22;5370;50.132;8.626;2023-08-06T15:35:27;18.50;72.00
10644;DHT22;5370;50.132;8.626;2023-08-06T15:37:53;18.40;71.20
10644;DHT22;5370;50.132;8.626;2023-08-06T15:40:18;18.30;70.80
10644;DHT22;5370;50.132;8.626;2023-08-06T15:42:44;18.20;71.00
10644;DHT22;5370;50.132;8.626;2023-08-06T15:45:10;18.10;71.20
10644;DHT22;5370;50.132;8.626;2023-08-06T15:47:35;18.10;71.50
10644;DHT22;5370;50.132;8.626;2023-08-06T15:50:07;18.10;71.90